Aérodrome :
LOGIN :

S'inscrire | Disclaimer

   EN    FR    IT 

 










Légende :    VFR   VFR Marginal   IFR   IFR Intensif   IFR Très Intensif
Visi : 
Plafond : 
>= 8 km
>= 3000ft
5 à 8 km
1000 à 3000 ft
1500m à 5 km
500 à 1000 ft
800 à 1500m
200 à 500 ft
< 800m
< 200 ft
Symboles :   Orages  Brouillard  Fortes neiges  Fortes précipitations  Vent > 20 kt
SIGMETs :   Divers  Orages  Givrage  Turbulence  Onde Orograph.  Cendres Volcan.







- Altitude de l'aérodrome : 55 ft
- Code IATA : DSA
- Voir les cartes d'approche


EGCN - Robin Hood Doncaster Sheffield

DERNIER METAR :
  • 260720Z 25017KT 9999 FEW025 10/05 Q1012

METARs EXPIRÉS :
  • 260650Z 24013KT 9999 FEW028 SCT039 10/06 Q1012
  • 260620Z 24015KT 9999 FEW011 SCT024 09/06 Q1012
  • 260550Z 24016KT 9999 SCT019 08/05 Q1011
  • 260520Z 24014KT 9999 FEW019 SCT027 08/05 Q1011
  • 260450Z 25015KT 9999 FEW030 08/05 Q1011

TAF TAF EGCN
Valide du 26 à 06h jusqu'au 27 à 06h UTC


260454Z 2606/2706 25014KT 9999 FEW030
TEMPO 2608/2616 26017G27KT 7000 SHRA
BECMG 2700/2703 19003KT
PROB30
TEMPO 2704/2706 9000 -RA
Pas de NOTAMs connus pour ce terrain.



MET'MAP, la Météo Aéronautique d'un coup d'oeil ! - Copyright ORBIFLY Décembre 2007 - Disclaimer

ORBIFLY MET'MAP TEAM :

Programmation & Développement : Alexandra Zaïnal
Conception & Développement : Baudouin d'Aumeries
Co-Programmation & Développement : Marc-Olivier Méhu
Soutien technique & logistique : Manuel Goepfert

Contact : metmap@orbifly.com




SOURCES & CREDITS :

   NOAA